Terminal Aerodrome Forecast
Issued by NWS

Home | Current Version | Previous Version | Text Only | Print | Product List | Glossary On
Versions: 1 2 3 4 5 6 7 8 9 10 11 12 13 14 15 16 17 18 19 20 21 22 23 24 25 26 27 28
000
FTUS42 KFFC 231700
TAFFTY
TAF
KFTY 231733Z 2318/2418 25005KT P6SM VCSH BKN030
     FM232000 25006KT P6SM VCSH BKN040
     FM240000 28004KT P6SM SCT040
     FM240800 23005KT P6SM SCT025
     FM241100 24005KT P6SM BKN025
     FM241500 27008G13KT 6SM -SHRA BKN030 PROB30 2416/2418 5SM TSRA
      BR BKN025CB=

USA.gov is the U.S. government's official web portal to all federal, state and local government web resources and services.